Lincoln, Missouri
Current Conditions -  °F | °C
As of 6:55 AM on Saturday 20 Dec 2014 (Local Time) from KGLY Reporting Station
Overcast Overcast  
Wind Chill: 32°   Ceiling: 800
Heat Index: 37°   Visibility: 7mi
Dew Point: 37°   Wind: 7mph
Humidity: 100%   Direction: 270°W
Pressure: 30.23"   Gusts: NA
Location:  38.39°N, 93.33°W
Report Text: KGLY 201255Z AUTO 27006KT 7SM OVC008 03/03 A3023 RMK AO2
Loading
Personal Weather Stations






























Interactive Weather Map New forecast layout! Learn more

10-Day Weather Forecast

Advertisements
Track Severe Weather on mobile